createdAt,value
2023-03-30T00:01:37.289Z,52.79
2023-03-30T00:04:03.886Z,53.03
2023-03-30T00:06:30.507Z,52.11
2023-03-30T00:08:58.534Z,52.92
2023-03-30T00:11:27.234Z,53.21
2023-03-30T00:13:54.747Z,51.71
2023-03-30T00:16:21.835Z,53.67
2023-03-30T00:18:48.472Z,52.53
2023-03-30T00:21:18.232Z,52.52
2023-03-30T00:23:47.722Z,52.55
2023-03-30T00:26:14.866Z,52.55
2023-03-30T00:28:41.520Z,53.70
2023-03-30T00:31:08.178Z,52.47
2023-03-30T00:33:45.455Z,52.16
2023-03-30T00:36:12.945Z,52.38
2023-03-30T00:38:40.508Z,51.83
2023-03-30T00:41:07.410Z,51.32
2023-03-30T00:43:34.195Z,51.99
2023-03-30T00:46:01.103Z,51.05
2023-03-30T00:48:28.996Z,51.77
2023-03-30T00:51:02.322Z,51.21
2023-03-30T00:53:35.108Z,50.71
2023-03-30T00:56:03.769Z,51.02
2023-03-30T00:58:31.251Z,50.21
2023-03-30T01:01:00.343Z,50.20
2023-03-30T01:03:27.313Z,49.56
2023-03-30T01:05:56.087Z,48.51
2023-03-30T01:08:24.236Z,48.86
2023-03-30T01:10:52.591Z,48.84
2023-03-30T01:13:19.923Z,48.31
2023-03-30T01:16:21.095Z,48.84
2023-03-30T01:19:12.013Z,47.57
2023-03-30T01:22:01.092Z,49.24
2023-03-30T01:25:15.158Z,48.26
2023-03-30T01:28:09.766Z,49.24
2023-03-30T01:30:46.050Z,49.22
2023-03-30T01:33:57.764Z,49.55
2023-03-30T01:36:45.940Z,48.67
2023-03-30T01:39:31.149Z,48.74
2023-03-30T01:42:45.262Z,49.26
2023-03-30T01:45:14.961Z,47.96
2023-03-30T01:47:54.441Z,47.71
2023-03-30T01:50:38.559Z,48.22
2023-03-30T01:53:17.611Z,47.51
2023-03-30T01:55:58.262Z,48.28
2023-03-30T01:58:31.043Z,47.76
2023-03-30T02:00:59.947Z,47.61
2023-03-30T02:03:29.307Z,47.08
2023-03-30T02:05:58.971Z,46.50
2023-03-30T02:08:28.651Z,45.84
2023-03-30T02:10:57.395Z,46.52
2023-03-30T02:13:26.617Z,45.68
2023-03-30T02:16:03.086Z,45.01
2023-03-30T02:18:29.603Z,45.14
2023-03-30T02:20:58.713Z,46.06
2023-03-30T02:23:28.978Z,45.67
2023-03-30T02:25:56.866Z,45.70
2023-03-30T02:28:23.598Z,46.17
2023-03-30T02:30:50.459Z,46.52
2023-03-30T02:33:25.982Z,44.96
2023-03-30T02:36:13.383Z,46.07
2023-03-30T02:41:52.122Z,45.38
2023-03-30T02:44:39.856Z,46.25
2023-03-30T02:47:29.330Z,45.98
2023-03-30T02:50:00.635Z,47.54
2023-03-30T02:52:36.972Z,46.10
2023-03-30T02:55:11.589Z,45.43
2023-03-30T02:58:13.164Z,45.75
2023-03-30T03:00:43.687Z,45.65
2023-03-30T03:03:27.660Z,46.50
2023-03-30T03:05:54.915Z,46.23
2023-03-30T03:08:24.669Z,45.53
2023-03-30T03:10:51.854Z,45.97
2023-03-30T03:13:20.715Z,46.82
2023-03-30T03:15:49.474Z,46.72
2023-03-30T03:18:16.052Z,46.57
2023-03-30T03:20:42.736Z,45.96
2023-03-30T03:23:09.219Z,46.27
2023-03-30T03:25:36.926Z,46.34
2023-03-30T03:28:04.053Z,46.55
2023-03-30T03:30:30.608Z,46.77
2023-03-30T03:32:57.150Z,46.42
2023-03-30T03:35:24.124Z,46.40
2023-03-30T03:37:50.806Z,47.09
2023-03-30T03:40:17.576Z,46.89
2023-03-30T03:42:44.075Z,47.53
2023-03-30T03:45:11.359Z,47.90
2023-03-30T03:47:38.005Z,47.50
2023-03-30T03:50:09.316Z,46.90
2023-03-30T03:52:36.901Z,47.05
2023-03-30T03:55:04.468Z,46.81
2023-03-30T03:57:31.120Z,46.55
2023-03-30T03:59:59.684Z,46.00
2023-03-30T04:02:27.788Z,46.03
2023-03-30T04:04:54.761Z,47.06
2023-03-30T04:07:21.588Z,46.98
2023-03-30T04:09:48.189Z,47.43
2023-03-30T04:12:14.697Z,46.81
2023-03-30T04:14:41.280Z,46.33
2023-03-30T04:17:07.752Z,46.34
2023-03-30T04:19:36.070Z,46.44
2023-03-30T04:22:05.990Z,46.96
2023-03-30T04:24:35.487Z,45.97
2023-03-30T04:27:02.835Z,46.16
2023-03-30T04:29:29.758Z,46.19
2023-03-30T04:31:56.666Z,46.16
2023-03-30T04:34:23.272Z,46.38
2023-03-30T04:36:49.809Z,45.44
2023-03-30T04:39:18.397Z,44.78
2023-03-30T04:41:46.040Z,45.19
2023-03-30T04:44:12.807Z,45.10
2023-03-30T04:46:39.685Z,44.67
2023-03-30T04:49:06.393Z,44.30
2023-03-30T04:51:33.524Z,44.66
2023-03-30T04:54:00.363Z,45.16
2023-03-30T04:56:27.807Z,44.80
2023-03-30T04:58:54.427Z,44.26
2023-03-30T05:01:21.420Z,45.40
2023-03-30T05:03:48.856Z,46.07
2023-03-30T05:06:15.486Z,45.50
2023-03-30T05:08:42.137Z,45.64
2023-03-30T05:11:08.873Z,45.66
2023-03-30T05:13:35.430Z,46.29
2023-03-30T05:16:01.964Z,46.66
2023-03-30T05:18:28.522Z,46.51
2023-03-30T05:20:58.772Z,46.20
2023-03-30T05:23:26.046Z,47.00
2023-03-30T05:25:52.993Z,47.26
2023-03-30T05:28:19.658Z,47.12
2023-03-30T05:30:47.105Z,46.75
2023-03-30T05:33:13.714Z,46.56
2023-03-30T05:35:40.510Z,47.16
2023-03-30T05:38:07.364Z,45.99
2023-03-30T05:40:33.988Z,46.63
2023-03-30T05:43:00.980Z,46.06
2023-03-30T05:45:27.888Z,46.38
2023-03-30T05:47:54.684Z,47.20
2023-03-30T05:50:22.042Z,46.63
2023-03-30T05:52:49.509Z,45.92
2023-03-30T05:55:16.429Z,47.45
2023-03-30T05:57:43.097Z,48.08
2023-03-30T06:00:11.129Z,48.42
2023-03-30T06:02:37.765Z,48.05
2023-03-30T06:05:04.702Z,48.82
2023-03-30T06:07:31.238Z,48.39
2023-03-30T06:09:59.665Z,49.61
2023-03-30T06:12:27.228Z,49.33
2023-03-30T06:14:53.868Z,48.66
2023-03-30T06:17:20.346Z,49.87
2023-03-30T06:19:46.898Z,49.40
2023-03-30T06:22:13.502Z,48.76
2023-03-30T06:24:39.973Z,48.96
2023-03-30T06:27:06.814Z,48.76
2023-03-30T06:29:33.332Z,48.66
2023-03-30T06:32:01.354Z,50.39
2023-03-30T06:34:27.883Z,50.37
2023-03-30T06:36:54.868Z,49.57
2023-03-30T06:39:22.134Z,49.12
2023-03-30T06:41:48.676Z,49.59
2023-03-30T06:44:15.433Z,49.76
2023-03-30T06:46:42.435Z,49.75
2023-03-30T06:49:11.600Z,49.54
2023-03-30T06:51:38.174Z,49.48
2023-03-30T06:54:04.709Z,49.85
2023-03-30T06:56:31.408Z,49.03
2023-03-30T06:58:57.994Z,49.29
2023-03-30T07:01:24.598Z,49.38
2023-03-30T07:03:53.368Z,49.24
2023-03-30T07:06:21.364Z,49.27
2023-03-30T07:08:48.279Z,49.12
2023-03-30T07:11:14.962Z,48.88
2023-03-30T07:13:42.077Z,48.79
2023-03-30T07:16:08.944Z,48.08
2023-03-30T07:18:35.857Z,47.61
2023-03-30T07:21:04.528Z,47.15
2023-03-30T07:23:31.301Z,47.51
2023-03-30T07:25:57.839Z,47.09
2023-03-30T07:28:25.600Z,46.96
2023-03-30T07:30:52.907Z,46.65
2023-03-30T07:33:19.587Z,47.08
2023-03-30T07:35:46.875Z,47.01
2023-03-30T07:38:14.428Z,45.77
2023-03-30T07:40:41.227Z,46.08
2023-03-30T07:43:07.885Z,46.74
2023-03-30T07:45:34.515Z,45.56
2023-03-30T07:48:01.150Z,45.29
2023-03-30T07:50:28.484Z,46.12
2023-03-30T07:52:55.015Z,46.38
2023-03-30T07:55:21.940Z,46.79
2023-03-30T07:57:48.411Z,45.59
2023-03-30T08:00:15.413Z,46.64
2023-03-30T08:02:42.457Z,46.85
2023-03-30T08:05:09.636Z,47.74
2023-03-30T08:07:36.650Z,48.20
2023-03-30T08:10:03.367Z,48.52
2023-03-30T08:12:29.847Z,49.44
2023-03-30T08:14:56.389Z,52.12
2023-03-30T08:17:23.042Z,53.75
2023-03-30T08:19:49.673Z,53.53
2023-03-30T08:22:16.244Z,52.57
2023-03-30T08:24:42.928Z,52.18
2023-03-30T08:27:09.456Z,51.02
2023-03-30T08:29:35.947Z,52.13
2023-03-30T08:32:02.938Z,50.21
2023-03-30T08:34:29.852Z,50.71
2023-03-30T08:36:58.057Z,50.63
2023-03-30T08:39:24.828Z,50.79
2023-03-30T08:42:00.748Z,52.54
2023-03-30T08:44:53.233Z,53.77
2023-03-30T08:47:30.041Z,55.01
2023-03-30T08:50:06.648Z,53.48
2023-03-30T08:52:33.896Z,52.58
2023-03-30T08:55:01.388Z,52.75
2023-03-30T08:57:51.780Z,53.37
2023-03-30T09:00:56.829Z,52.68
2023-03-30T09:04:04.515Z,53.33
2023-03-30T09:06:40.075Z,52.58
2023-03-30T09:09:11.913Z,52.38
2023-03-30T09:11:38.915Z,52.40
2023-03-30T09:14:07.443Z,51.58
2023-03-30T09:16:51.751Z,51.79
2023-03-30T09:19:24.283Z,51.15
2023-03-30T09:21:53.234Z,51.67
2023-03-30T09:24:25.773Z,50.52
2023-03-30T09:27:18.786Z,49.31
2023-03-30T09:29:50.853Z,49.42
2023-03-30T09:32:24.147Z,48.86
2023-03-30T09:34:57.435Z,49.04
2023-03-30T09:37:34.774Z,48.60
2023-03-30T09:40:45.440Z,46.64
2023-03-30T09:43:37.422Z,44.72
2023-03-30T09:46:06.678Z,44.77
2023-03-30T09:48:45.336Z,44.21
2023-03-30T09:51:15.553Z,44.58
2023-03-30T09:53:43.232Z,44.15
2023-03-30T09:56:18.061Z,40.99
2023-03-30T09:58:44.574Z,40.13
2023-03-30T10:01:18.390Z,38.63
2023-03-30T10:03:47.322Z,39.51
2023-03-30T10:06:18.364Z,39.04
2023-03-30T10:08:52.634Z,35.07
2023-03-30T10:11:21.114Z,34.84
2023-03-30T10:13:49.677Z,30.99
2023-03-30T10:16:26.316Z,31.52
2023-03-30T10:18:55.556Z,30.99
2023-03-30T10:21:27.052Z,34.91
2023-03-30T10:24:22.076Z,40.00
2023-03-30T10:26:52.972Z,41.59
2023-03-30T10:29:22.898Z,43.30
2023-03-30T10:32:01.246Z,44.54
2023-03-30T10:34:34.505Z,45.52
2023-03-30T10:37:01.156Z,45.09
2023-03-30T10:39:32.655Z,46.20
2023-03-30T10:42:04.307Z,46.42
2023-03-30T10:44:32.828Z,47.37
2023-03-30T10:47:32.883Z,49.17
2023-03-30T10:50:35.791Z,52.49
2023-03-30T10:53:11.410Z,55.76
2023-03-30T10:56:04.308Z,57.55
2023-03-30T10:59:08.432Z,59.59
2023-03-30T11:02:00.620Z,59.85
2023-03-30T11:04:43.247Z,61.09
2023-03-30T11:07:31.144Z,59.27
2023-03-30T11:10:29.503Z,58.03
2023-03-30T11:13:06.331Z,56.29
2023-03-30T11:15:44.270Z,55.04
2023-03-30T11:18:21.826Z,53.52
2023-03-30T11:21:21.052Z,51.05
2023-03-30T11:23:54.758Z,46.33
2023-03-30T11:26:31.773Z,46.22
2023-03-30T11:29:10.419Z,43.86
2023-03-30T11:31:52.982Z,39.75
2023-03-30T11:34:58.787Z,32.40
2023-03-30T11:37:40.954Z,28.47
2023-03-30T11:40:18.351Z,26.45
2023-03-30T11:42:45.355Z,28.35
2023-03-30T11:45:19.359Z,32.78
2023-03-30T11:47:54.876Z,34.36
2023-03-30T11:50:32.893Z,32.88
2023-03-30T11:53:12.659Z,34.04
2023-03-30T11:55:48.299Z,31.95
2023-03-30T11:58:29.929Z,32.59
2023-03-30T12:01:15.354Z,34.68
2023-03-30T12:03:42.839Z,32.21
2023-03-30T12:06:32.515Z,32.43
2023-03-30T12:09:20.404Z,31.11
2023-03-30T12:11:51.565Z,33.58
2023-03-30T12:14:32.857Z,29.62
2023-03-30T12:17:04.244Z,28.85
2023-03-30T12:19:37.537Z,33.36
2023-03-30T12:22:15.980Z,36.82
2023-03-30T12:25:02.642Z,43.35
2023-03-30T12:27:30.655Z,44.11
2023-03-30T12:30:12.350Z,44.82
2023-03-30T12:32:38.902Z,45.46
2023-03-30T12:35:44.031Z,45.67
2023-03-30T12:38:17.693Z,46.50
2023-03-30T12:40:49.111Z,46.43
2023-03-30T12:43:39.996Z,45.84
2023-03-30T12:46:31.081Z,51.42
2023-03-30T12:49:24.212Z,55.86
2023-03-30T12:52:00.643Z,57.39
2023-03-30T12:54:53.433Z,57.96
2023-03-30T12:57:30.673Z,58.82
2023-03-30T13:00:28.562Z,59.00
2023-03-30T13:03:00.583Z,56.59
2023-03-30T13:05:32.106Z,56.94
2023-03-30T13:08:03.804Z,57.86
2023-03-30T13:10:30.498Z,60.20
2023-03-30T13:13:02.870Z,61.63
2023-03-30T13:15:34.457Z,61.07
2023-03-30T13:18:05.244Z,60.31
2023-03-30T13:20:47.066Z,60.88
2023-03-30T13:23:13.532Z,62.20
2023-03-30T13:25:54.388Z,65.18
2023-03-30T13:28:30.300Z,65.03
2023-03-30T13:31:05.868Z,65.18
2023-03-30T13:33:34.962Z,64.74
2023-03-30T13:36:01.451Z,63.11
2023-03-30T13:38:40.328Z,62.61
2023-03-30T13:41:40.779Z,63.60
2023-03-30T13:44:45.967Z,64.12
2023-03-30T13:47:18.564Z,61.86
2023-03-30T13:50:13.856Z,61.40
2023-03-30T13:52:43.827Z,61.24
2023-03-30T13:55:17.438Z,59.64
2023-03-30T13:57:44.628Z,59.08
2023-03-30T14:00:44.722Z,59.75
2023-03-30T14:03:33.366Z,58.17
2023-03-30T14:06:02.794Z,56.40
2023-03-30T14:08:35.620Z,55.54
2023-03-30T14:11:24.111Z,54.53
2023-03-30T14:13:52.509Z,53.51
2023-03-30T14:16:24.056Z,53.64
2023-03-30T14:18:51.361Z,53.08
2023-03-30T14:21:20.552Z,52.77
2023-03-30T14:23:50.685Z,52.83
2023-03-30T14:26:28.308Z,54.01
2023-03-30T14:29:06.229Z,55.28
2023-03-30T14:31:40.450Z,56.13
2023-03-30T14:34:33.520Z,54.90
2023-03-30T14:37:07.626Z,53.22
2023-03-30T14:39:40.502Z,51.34
2023-03-30T14:42:27.230Z,51.65
2023-03-30T14:44:55.895Z,52.27
2023-03-30T14:47:27.448Z,52.05
2023-03-30T14:50:00.030Z,53.41
2023-03-30T14:52:38.727Z,53.23
2023-03-30T14:55:09.925Z,52.18
2023-03-30T14:57:39.930Z,52.82
2023-03-30T15:00:17.826Z,53.29
2023-03-30T15:02:44.921Z,53.21
2023-03-30T15:05:11.643Z,52.57
2023-03-30T15:07:38.659Z,51.31
2023-03-30T15:10:05.690Z,51.59
2023-03-30T15:12:35.736Z,49.65
2023-03-30T15:15:05.573Z,50.91
2023-03-30T15:17:32.280Z,50.71
2023-03-30T15:19:59.577Z,49.74
2023-03-30T15:22:29.738Z,50.04
2023-03-30T15:24:57.982Z,50.06
2023-03-30T15:27:24.617Z,50.16
2023-03-30T15:29:51.293Z,50.28
2023-03-30T15:32:20.108Z,50.75
2023-03-30T15:35:05.440Z,50.96
2023-03-30T15:37:32.450Z,51.35
2023-03-30T15:39:58.954Z,52.21
2023-03-30T15:42:33.219Z,52.09
2023-03-30T15:45:17.913Z,51.97
2023-03-30T15:47:44.518Z,54.15
2023-03-30T15:50:14.596Z,54.17
2023-03-30T15:52:44.899Z,54.35
2023-03-30T15:55:17.704Z,54.25
2023-03-30T15:57:47.233Z,53.81
2023-03-30T16:00:17.626Z,53.65
2023-03-30T16:02:59.593Z,53.58
2023-03-30T16:05:34.237Z,54.44
2023-03-30T16:08:01.012Z,53.40
2023-03-30T16:10:30.834Z,55.08
2023-03-30T16:12:58.358Z,56.67
2023-03-30T16:15:27.821Z,58.27
2023-03-30T16:17:54.601Z,63.68
2023-03-30T16:20:27.260Z,67.14
2023-03-30T16:22:54.127Z,68.81
2023-03-30T16:25:34.068Z,70.31
2023-03-30T16:28:15.455Z,71.02
2023-03-30T16:30:42.465Z,70.48
2023-03-30T16:33:09.030Z,71.31
2023-03-30T16:35:35.578Z,71.96
2023-03-30T16:38:02.046Z,71.72
2023-03-30T16:40:34.556Z,72.27
2023-03-30T16:43:01.567Z,72.25
2023-03-30T16:45:28.361Z,71.89
2023-03-30T16:47:55.050Z,71.62
2023-03-30T16:50:42.475Z,71.52
2023-03-30T16:53:10.118Z,71.53
2023-03-30T16:55:37.715Z,72.16
2023-03-30T16:58:05.528Z,71.28
2023-03-30T17:00:36.454Z,70.34
2023-03-30T17:03:03.187Z,70.64
2023-03-30T17:05:31.231Z,69.93
2023-03-30T17:08:05.906Z,70.17
2023-03-30T17:10:39.664Z,69.86
2023-03-30T17:13:06.537Z,70.75
2023-03-30T17:15:35.119Z,71.48
2023-03-30T17:18:01.939Z,71.25
2023-03-30T17:20:51.935Z,71.94
2023-03-30T17:23:23.447Z,72.04
2023-03-30T17:25:50.570Z,70.52
2023-03-30T17:28:27.404Z,70.07
2023-03-30T17:30:57.006Z,69.35
2023-03-30T17:33:23.923Z,69.33
2023-03-30T17:35:55.961Z,68.51
2023-03-30T17:38:23.104Z,68.92
2023-03-30T17:40:49.945Z,69.02
2023-03-30T17:43:16.520Z,68.35
2023-03-30T17:45:43.437Z,69.19
2023-03-30T17:48:16.613Z,68.95
2023-03-30T17:50:46.088Z,70.17
2023-03-30T17:53:17.308Z,71.91
2023-03-30T17:55:48.176Z,72.06
2023-03-30T17:58:14.972Z,72.84
2023-03-30T18:00:41.612Z,74.70
2023-03-30T18:03:08.469Z,73.47
2023-03-30T18:05:34.966Z,73.29
2023-03-30T18:08:01.426Z,75.78
2023-03-30T18:10:38.928Z,77.49
2023-03-30T18:13:06.463Z,77.79
2023-03-30T18:15:33.499Z,78.77
2023-03-30T18:18:00.940Z,80.33
2023-03-30T18:20:52.769Z,79.16
2023-03-30T18:23:20.026Z,78.85
2023-03-30T18:25:47.094Z,78.77
2023-03-30T18:28:22.068Z,78.73
2023-03-30T18:30:49.280Z,77.97
2023-03-30T18:33:16.751Z,78.59
2023-03-30T18:35:44.729Z,77.19
2023-03-30T18:38:12.706Z,76.62
2023-03-30T18:40:45.702Z,76.75
2023-03-30T18:43:12.986Z,75.57
2023-03-30T18:45:41.261Z,76.10
2023-03-30T18:48:10.613Z,75.59
2023-03-30T18:50:48.237Z,75.06
2023-03-30T18:53:23.076Z,75.63
2023-03-30T18:55:51.605Z,74.31
2023-03-30T18:58:26.420Z,74.44
2023-03-30T19:00:54.052Z,73.61
2023-03-30T19:03:22.184Z,74.07
2023-03-30T19:05:49.671Z,73.55
2023-03-30T19:08:18.859Z,73.80
2023-03-30T19:10:47.218Z,74.17
2023-03-30T19:13:15.078Z,74.35
2023-03-30T19:15:43.262Z,74.16
2023-03-30T19:18:10.000Z,74.02
2023-03-30T19:20:39.684Z,74.65
2023-03-30T19:23:07.133Z,73.25
2023-03-30T19:25:33.672Z,73.58
2023-03-30T19:28:03.975Z,73.94
2023-03-30T19:30:33.637Z,73.24
2023-03-30T19:33:04.022Z,71.98
2023-03-30T19:35:31.304Z,71.85
2023-03-30T19:37:58.039Z,71.10
2023-03-30T19:40:25.126Z,72.67
2023-03-30T19:42:51.806Z,72.90
2023-03-30T19:45:20.457Z,72.31
2023-03-30T19:47:47.132Z,71.66
2023-03-30T19:50:17.830Z,71.38
2023-03-30T19:52:48.472Z,71.61
2023-03-30T19:55:15.394Z,71.32
2023-03-30T19:57:41.903Z,71.00
2023-03-30T20:00:12.682Z,70.40
2023-03-30T20:02:40.175Z,70.12
2023-03-30T20:05:09.959Z,70.03
2023-03-30T20:07:37.482Z,69.58
2023-03-30T20:10:05.610Z,71.02
2023-03-30T20:12:32.602Z,70.77
2023-03-30T20:14:59.873Z,70.64
2023-03-30T20:17:29.863Z,68.85
2023-03-30T20:19:58.200Z,69.56
2023-03-30T20:22:25.530Z,68.80
2023-03-30T20:24:52.093Z,67.95
2023-03-30T20:27:18.664Z,67.21
2023-03-30T20:29:46.568Z,67.22
2023-03-30T20:32:16.463Z,68.59
2023-03-30T20:34:45.919Z,67.31
2023-03-30T20:37:12.436Z,67.44
2023-03-30T20:39:38.885Z,67.49
2023-03-30T20:42:08.168Z,68.00
2023-03-30T20:44:35.735Z,68.12
2023-03-30T20:47:03.950Z,67.53
2023-03-30T20:49:32.363Z,65.80
2023-03-30T20:52:02.296Z,65.49
2023-03-30T20:54:30.516Z,65.73
2023-03-30T20:56:57.259Z,65.96
2023-03-30T20:59:23.947Z,65.11
2023-03-30T21:01:52.087Z,64.30
2023-03-30T21:04:19.540Z,66.17
2023-03-30T21:06:46.847Z,66.04
2023-03-30T21:09:13.707Z,66.92
2023-03-30T21:11:41.326Z,65.49
2023-03-30T21:14:09.991Z,65.51
2023-03-30T21:16:37.899Z,65.28
2023-03-30T21:19:05.441Z,65.97
2023-03-30T21:21:33.795Z,65.03
2023-03-30T21:24:01.696Z,64.74
2023-03-30T21:26:31.730Z,64.66
2023-03-30T21:28:58.205Z,64.14
2023-03-30T21:31:24.789Z,64.90
2023-03-30T21:33:51.648Z,64.44
2023-03-30T21:36:18.712Z,63.91
2023-03-30T21:38:45.398Z,63.43
2023-03-30T21:41:14.395Z,63.52
2023-03-30T21:43:44.109Z,63.11
2023-03-30T21:46:13.122Z,63.46
2023-03-30T21:48:41.767Z,63.76
2023-03-30T21:51:09.424Z,63.55
2023-03-30T21:53:36.388Z,62.76
2023-03-30T21:56:04.162Z,63.04
2023-03-30T21:58:30.999Z,63.09
2023-03-30T22:01:08.856Z,62.88
2023-03-30T22:03:37.700Z,62.76
2023-03-30T22:06:07.661Z,62.90
2023-03-30T22:08:35.378Z,62.55
2023-03-30T22:11:05.494Z,62.82
2023-03-30T22:13:32.152Z,63.32
2023-03-30T22:16:01.257Z,62.83
2023-03-30T22:18:28.806Z,63.53
2023-03-30T22:21:02.350Z,63.80
2023-03-30T22:23:29.400Z,63.14
2023-03-30T22:25:56.123Z,63.28
2023-03-30T22:28:22.739Z,63.38
2023-03-30T22:30:49.369Z,62.89
2023-03-30T22:33:17.291Z,63.77
2023-03-30T22:35:45.034Z,63.68
2023-03-30T22:38:12.772Z,63.56
2023-03-30T22:40:41.817Z,63.87
2023-03-30T22:43:09.637Z,63.26
2023-03-30T22:45:36.457Z,63.08
2023-03-30T22:48:03.117Z,64.19
2023-03-30T22:50:31.047Z,64.80
2023-03-30T22:52:57.586Z,64.73
2023-03-30T22:55:24.819Z,63.95
2023-03-30T22:57:52.402Z,64.96
2023-03-30T23:00:19.267Z,65.46
2023-03-30T23:02:45.790Z,64.86
2023-03-30T23:05:14.936Z,64.32
2023-03-30T23:07:44.499Z,64.28
2023-03-30T23:10:14.689Z,66.23
2023-03-30T23:12:42.638Z,65.40
2023-03-30T23:15:10.697Z,65.29
2023-03-30T23:17:37.741Z,64.82
2023-03-30T23:20:06.578Z,65.40
2023-03-30T23:22:33.188Z,65.42
2023-03-30T23:24:59.692Z,65.46
2023-03-30T23:27:26.597Z,65.16
2023-03-30T23:29:53.387Z,65.13
2023-03-30T23:32:20.019Z,65.39
2023-03-30T23:34:46.765Z,65.46
2023-03-30T23:37:13.322Z,64.14
2023-03-30T23:39:40.029Z,65.17
2023-03-30T23:42:06.973Z,65.27
2023-03-30T23:44:33.605Z,65.13
2023-03-30T23:47:00.682Z,64.90
2023-03-30T23:49:27.269Z,64.97
2023-03-30T23:51:53.888Z,65.63
2023-03-30T23:54:21.158Z,64.82
2023-03-30T23:56:48.863Z,64.56
2023-03-30T23:59:15.594Z,64.35
